createdAt,value
2023-03-17T00:00:18.964Z,0.42
2023-03-17T00:03:46.853Z,0.42
2023-03-17T00:07:14.901Z,0.42
2023-03-17T00:10:42.980Z,0.38
2023-03-17T00:14:11.031Z,0.39
2023-03-17T00:17:39.412Z,0.41
2023-03-17T00:21:07.299Z,0.40
2023-03-17T00:24:35.297Z,0.40
2023-03-17T00:28:03.098Z,0.40
2023-03-17T00:31:32.043Z,0.40
2023-03-17T00:34:59.894Z,0.41
2023-03-17T00:38:27.857Z,0.40
2023-03-17T00:41:55.788Z,0.40
2023-03-17T00:45:23.653Z,0.38
2023-03-17T00:48:13.873Z,0.37
2023-03-17T00:51:41.800Z,0.34
2023-03-17T00:55:10.183Z,0.35
2023-03-17T00:58:39.304Z,0.34
2023-03-17T01:02:07.360Z,0.32
2023-03-17T01:05:35.459Z,0.28
2023-03-17T01:09:03.253Z,0.27
2023-03-17T01:12:12.337Z,0.23
2023-03-17T01:15:40.155Z,0.15
2023-03-17T01:19:08.039Z,0.15
2023-03-17T01:22:36.052Z,0.10
2023-03-17T01:26:04.123Z,0.13
2023-03-17T01:29:33.091Z,0.07
2023-03-17T01:33:01.815Z,0.07
2023-03-17T01:36:29.548Z,0.04
2023-03-17T01:39:57.484Z,0.03
2023-03-17T01:43:25.449Z,0.01
2023-03-17T01:46:53.394Z,-0.05
2023-03-17T01:50:21.232Z,-0.07
2023-03-17T01:53:49.322Z,-0.09
2023-03-17T01:57:17.168Z,-0.15
2023-03-17T02:00:45.170Z,-0.18
2023-03-17T02:03:54.196Z,-0.24
2023-03-17T02:07:22.463Z,-0.30
2023-03-17T02:10:50.332Z,-0.33
2023-03-17T02:14:18.229Z,-0.36
2023-03-17T02:17:46.086Z,-0.38
2023-03-17T02:20:46.374Z,-0.40
2023-03-17T02:24:14.408Z,-0.45
2023-03-17T02:27:24.144Z,-0.46
2023-03-17T02:30:53.930Z,-0.50
2023-03-17T02:34:21.641Z,-0.56
2023-03-17T02:37:49.317Z,-0.58
2023-03-17T02:40:57.266Z,-0.61
2023-03-17T02:44:25.382Z,-0.60
2023-03-17T02:47:34.232Z,-0.61
2023-03-17T02:51:02.317Z,-0.60
2023-03-17T02:54:10.533Z,-0.62
2023-03-17T02:57:38.413Z,-0.66
2023-03-17T03:01:06.308Z,-0.65
2023-03-17T03:04:34.168Z,-0.66
2023-03-17T03:08:03.240Z,-0.66
2023-03-17T03:10:53.636Z,-0.67
2023-03-17T03:14:21.562Z,-0.66
2023-03-17T03:17:30.364Z,-0.67
2023-03-17T03:20:58.408Z,-0.70
2023-03-17T03:24:26.202Z,-0.77
2023-03-17T03:27:54.185Z,-0.80
2023-03-17T03:31:22.093Z,-0.82
2023-03-17T03:34:50.008Z,-0.81
2023-03-17T03:38:17.769Z,-0.81
2023-03-17T03:41:45.698Z,-0.84
2023-03-17T03:45:14.073Z,-0.86
2023-03-17T03:48:42.297Z,-0.88
2023-03-17T03:52:10.201Z,-0.92
2023-03-17T03:55:38.043Z,-0.95
2023-03-17T03:59:06.151Z,-0.92
2023-03-17T04:02:34.029Z,-0.86
2023-03-17T04:06:01.922Z,-0.86
2023-03-17T04:09:29.962Z,-0.90
2023-03-17T04:12:58.865Z,-0.91
2023-03-17T04:16:26.695Z,-0.93
2023-03-17T04:19:35.585Z,-0.95
2023-03-17T04:23:03.585Z,-1.03
2023-03-17T04:26:31.332Z,-1.05
2023-03-17T04:29:40.479Z,-1.06
2023-03-17T04:33:08.393Z,-1.12
2023-03-17T04:36:36.103Z,-1.13
2023-03-17T04:40:03.985Z,-1.15
2023-03-17T04:43:32.446Z,-1.15
2023-03-17T04:47:00.353Z,-1.17
2023-03-17T04:50:28.285Z,-1.18
2023-03-17T04:53:56.114Z,-1.16
2023-03-17T04:57:25.057Z,-1.11
2023-03-17T05:00:33.775Z,-1.03
2023-03-17T05:04:02.803Z,-1.03
2023-03-17T05:07:11.457Z,-1.03
2023-03-17T05:10:20.338Z,-1.01
2023-03-17T05:13:48.144Z,-0.99
2023-03-17T05:17:16.864Z,-0.98
2023-03-17T05:20:25.177Z,-0.93
2023-03-17T05:23:54.970Z,-0.91
2023-03-17T05:27:22.059Z,-0.85
2023-03-17T05:30:49.961Z,-0.78
2023-03-17T05:34:17.809Z,-0.69
2023-03-17T05:37:45.746Z,-0.55
2023-03-17T05:41:13.714Z,-0.48
2023-03-17T05:44:21.879Z,-0.38
2023-03-17T05:47:49.614Z,-0.23
2023-03-17T05:51:17.408Z,-0.05
2023-03-17T05:54:45.935Z,0.15
2023-03-17T05:58:13.766Z,0.25
2023-03-17T06:01:41.666Z,0.34
2023-03-17T06:05:09.926Z,0.47
2023-03-17T06:08:37.726Z,0.58
2023-03-17T06:12:05.606Z,0.66
2023-03-17T06:15:35.021Z,0.74
2023-03-17T06:18:43.408Z,0.84
2023-03-17T06:22:11.322Z,0.94
2023-03-17T06:25:39.209Z,1.06
2023-03-17T06:28:47.303Z,1.13
2023-03-17T06:31:36.411Z,1.23
2023-03-17T06:34:26.040Z,1.31
2023-03-17T06:37:54.039Z,1.41
2023-03-17T06:41:21.805Z,1.53
2023-03-17T06:44:49.665Z,1.66
2023-03-17T06:48:17.686Z,1.78
2023-03-17T06:51:45.717Z,1.99
2023-03-17T06:55:13.473Z,2.27
2023-03-17T06:58:41.241Z,2.55
2023-03-17T07:02:09.232Z,2.69
2023-03-17T07:05:37.215Z,2.91
2023-03-17T07:09:05.382Z,3.00
2023-03-17T07:12:33.394Z,3.14
2023-03-17T07:16:01.644Z,3.31
2023-03-17T07:19:29.627Z,3.43
2023-03-17T07:22:57.619Z,3.60
2023-03-17T07:26:26.010Z,3.71
2023-03-17T07:29:53.950Z,3.90
2023-03-17T07:33:21.886Z,4.16
2023-03-17T07:36:49.941Z,4.37
2023-03-17T07:40:18.050Z,4.53
2023-03-17T07:43:45.931Z,4.70
2023-03-17T07:47:13.790Z,4.74
2023-03-17T07:50:41.857Z,4.72
2023-03-17T07:54:09.882Z,4.75
2023-03-17T07:57:17.991Z,4.90
2023-03-17T08:00:45.857Z,4.89
2023-03-17T08:04:13.842Z,4.90
2023-03-17T08:07:41.593Z,5.11
2023-03-17T08:11:09.938Z,5.29
2023-03-17T08:14:38.010Z,5.41
2023-03-17T08:18:05.937Z,5.62
2023-03-17T08:21:33.887Z,5.91
2023-03-17T08:25:01.892Z,6.15
2023-03-17T08:28:30.020Z,6.39
2023-03-17T08:31:58.563Z,6.56
2023-03-17T08:35:06.376Z,6.69
2023-03-17T08:38:34.603Z,6.92
2023-03-17T08:42:02.703Z,7.15
2023-03-17T08:45:30.960Z,7.36
2023-03-17T08:48:58.871Z,7.45
2023-03-17T08:52:26.686Z,7.53
2023-03-17T08:55:35.543Z,7.66
2023-03-17T08:59:03.452Z,7.87
2023-03-17T09:02:31.244Z,8.08
2023-03-17T09:05:59.580Z,8.25
2023-03-17T09:09:28.267Z,8.38
2023-03-17T09:12:57.859Z,8.48
2023-03-17T09:16:06.875Z,8.63
2023-03-17T09:19:35.110Z,8.76
2023-03-17T09:23:02.989Z,8.95
2023-03-17T09:25:52.534Z,9.00
2023-03-17T09:29:20.566Z,9.31
2023-03-17T09:32:11.846Z,9.43
2023-03-17T09:34:59.582Z,9.40
2023-03-17T09:38:27.780Z,9.44
2023-03-17T09:41:55.501Z,9.33
2023-03-17T09:45:23.467Z,9.49
2023-03-17T09:48:51.500Z,9.55
2023-03-17T09:52:20.158Z,9.83
2023-03-17T09:55:08.549Z,10.10
2023-03-17T09:58:36.443Z,9.94
2023-03-17T10:02:05.094Z,10.00
2023-03-17T10:05:34.584Z,10.23
2023-03-17T10:08:42.575Z,10.52
2023-03-17T10:11:33.224Z,10.70
2023-03-17T10:14:42.566Z,10.77
2023-03-17T10:18:11.802Z,11.11
2023-03-17T10:21:20.150Z,11.06
2023-03-17T10:24:48.653Z,10.88
2023-03-17T10:28:16.558Z,10.48
2023-03-17T10:31:44.351Z,10.36
2023-03-17T10:35:12.502Z,9.87
2023-03-17T10:38:40.588Z,9.78
2023-03-17T10:41:29.282Z,9.72
2023-03-17T10:44:57.131Z,9.92
2023-03-17T10:48:25.186Z,9.97
2023-03-17T10:51:14.132Z,9.98
2023-03-17T10:54:42.078Z,9.98
2023-03-17T10:58:10.141Z,9.86
2023-03-17T11:01:38.082Z,10.12
2023-03-17T11:04:47.025Z,10.59
2023-03-17T11:08:16.042Z,10.91
2023-03-17T11:11:43.786Z,11.00
2023-03-17T11:15:11.586Z,11.34
2023-03-17T11:18:39.677Z,11.72
2023-03-17T11:22:07.463Z,11.79
2023-03-17T11:25:36.463Z,11.96
2023-03-17T11:29:04.910Z,12.12
2023-03-17T11:32:32.802Z,12.34
2023-03-17T11:36:00.805Z,12.10
2023-03-17T11:39:11.343Z,11.95
2023-03-17T11:42:39.316Z,12.01
2023-03-17T11:46:07.122Z,11.99
2023-03-17T11:49:35.121Z,12.23
2023-03-17T11:53:03.376Z,12.55
2023-03-17T11:56:31.364Z,12.63
2023-03-17T11:59:39.564Z,12.94
2023-03-17T12:03:07.720Z,13.23
2023-03-17T12:06:35.617Z,13.40
2023-03-17T12:10:03.635Z,13.16
2023-03-17T12:13:31.672Z,13.10
2023-03-17T12:16:59.925Z,12.86
2023-03-17T12:20:28.108Z,12.82
2023-03-17T12:23:37.756Z,13.20
2023-03-17T12:27:05.716Z,13.27
2023-03-17T12:30:33.895Z,12.97
2023-03-17T12:34:01.920Z,13.21
2023-03-17T12:37:29.900Z,12.70
2023-03-17T12:40:57.989Z,12.73
2023-03-17T12:44:26.590Z,12.54
2023-03-17T12:47:54.704Z,12.51
2023-03-17T12:51:23.203Z,12.89
2023-03-17T12:54:31.983Z,12.65
2023-03-17T12:57:40.582Z,12.59
2023-03-17T13:01:08.440Z,12.44
2023-03-17T13:04:36.362Z,12.43
2023-03-17T13:08:04.329Z,13.14
2023-03-17T13:11:32.245Z,13.74
2023-03-17T13:15:00.161Z,13.66
2023-03-17T13:17:50.172Z,13.61
2023-03-17T13:20:58.719Z,14.12
2023-03-17T13:24:07.162Z,14.81
2023-03-17T13:27:15.156Z,14.85
2023-03-17T13:30:04.709Z,15.17
2023-03-17T13:33:34.120Z,15.44
2023-03-17T13:36:42.961Z,15.58
2023-03-17T13:40:11.362Z,16.20
2023-03-17T13:43:39.237Z,16.04
2023-03-17T13:46:10.093Z,16.42
2023-03-17T13:49:38.242Z,16.17
2023-03-17T13:52:26.279Z,16.09
2023-03-17T13:55:35.073Z,16.23
2023-03-17T13:58:24.383Z,16.23
2023-03-17T14:01:53.248Z,16.83
2023-03-17T14:05:21.241Z,17.41
2023-03-17T14:07:50.404Z,17.36
2023-03-17T14:11:19.028Z,17.35
2023-03-17T14:14:47.417Z,17.47
2023-03-17T14:17:56.221Z,17.14
2023-03-17T14:20:26.030Z,17.53
2023-03-17T14:23:34.916Z,17.33
2023-03-17T14:27:03.259Z,17.24
2023-03-17T14:30:20.296Z,17.66
2023-03-17T14:33:09.630Z,17.64
2023-03-17T14:36:37.477Z,17.63
2023-03-17T14:40:05.395Z,17.77
2023-03-17T14:43:34.492Z,17.75
2023-03-17T14:46:58.441Z,18.26
2023-03-17T14:49:47.136Z,18.82
2023-03-17T14:53:15.045Z,18.88
2023-03-17T14:56:43.013Z,18.38
2023-03-17T14:59:31.843Z,18.59
2023-03-17T15:02:59.777Z,18.70
2023-03-17T15:05:27.971Z,18.38
2023-03-17T15:08:56.050Z,18.82
2023-03-17T15:11:25.171Z,19.10
2023-03-17T15:14:53.258Z,18.68
2023-03-17T15:18:21.344Z,17.87
2023-03-17T15:21:32.561Z,18.22
2023-03-17T15:24:20.688Z,18.47
2023-03-17T15:27:48.631Z,18.11
2023-03-17T15:30:57.026Z,17.15
2023-03-17T15:34:24.763Z,16.58
2023-03-17T15:37:52.541Z,16.02
2023-03-17T15:41:20.607Z,15.74
2023-03-17T15:44:48.503Z,16.23
2023-03-17T15:47:58.274Z,16.37
2023-03-17T15:51:26.243Z,16.09
2023-03-17T15:54:54.633Z,15.68
2023-03-17T15:58:02.771Z,15.50
2023-03-17T16:01:31.010Z,15.06
2023-03-17T16:04:20.467Z,14.49
2023-03-17T16:07:29.562Z,14.39
2023-03-17T16:10:39.835Z,14.11
2023-03-17T16:13:48.205Z,13.92
2023-03-17T16:16:56.814Z,13.80
2023-03-17T16:20:24.640Z,13.28
2023-03-17T16:23:52.721Z,12.88
2023-03-17T16:27:21.560Z,12.24
2023-03-17T16:30:49.744Z,11.75
2023-03-17T16:34:17.601Z,11.28
2023-03-17T16:37:45.761Z,10.85
2023-03-17T16:41:13.709Z,10.42
2023-03-17T16:44:21.599Z,10.09
2023-03-17T16:47:31.363Z,9.83
2023-03-17T16:50:59.275Z,9.67
2023-03-17T16:54:27.185Z,9.52
2023-03-17T16:57:55.320Z,9.32
2023-03-17T17:01:23.410Z,9.18
2023-03-17T17:04:51.236Z,9.00
2023-03-17T17:08:19.106Z,8.86
2023-03-17T17:11:47.068Z,8.76
2023-03-17T17:15:14.902Z,8.67
2023-03-17T17:18:43.001Z,8.62
2023-03-17T17:22:11.039Z,8.62
2023-03-17T17:25:39.065Z,8.60
2023-03-17T17:29:07.292Z,8.54
2023-03-17T17:32:34.979Z,8.52
2023-03-17T17:36:03.215Z,8.51
2023-03-17T17:39:31.024Z,8.44
2023-03-17T17:42:58.895Z,8.46
2023-03-17T17:46:26.696Z,8.38
2023-03-17T17:49:35.634Z,8.28
2023-03-17T17:53:04.675Z,8.22
2023-03-17T17:56:33.000Z,8.19
2023-03-17T18:00:01.174Z,8.19
2023-03-17T18:03:31.932Z,8.13
2023-03-17T18:06:57.696Z,8.07
2023-03-17T18:10:25.553Z,7.99
2023-03-17T18:13:14.750Z,7.97
2023-03-17T18:16:42.877Z,8.00
2023-03-17T18:19:51.482Z,7.96
2023-03-17T18:23:00.422Z,7.93
2023-03-17T18:26:28.513Z,7.91
2023-03-17T18:29:56.629Z,7.85
2023-03-17T18:33:24.889Z,7.80
2023-03-17T18:36:52.857Z,7.71
2023-03-17T18:40:21.128Z,7.57
2023-03-17T18:43:48.944Z,7.43
2023-03-17T18:47:17.438Z,7.32
2023-03-17T18:50:46.514Z,7.23
2023-03-17T18:54:14.674Z,7.13
2023-03-17T18:57:23.573Z,7.07
2023-03-17T19:00:51.630Z,7.09
2023-03-17T19:04:19.806Z,7.02
2023-03-17T19:07:29.001Z,6.95
2023-03-17T19:10:57.112Z,6.91
2023-03-17T19:14:25.508Z,6.93
2023-03-17T19:17:53.787Z,6.84
2023-03-17T19:21:22.231Z,6.77
2023-03-17T19:24:50.323Z,6.71
2023-03-17T19:28:18.316Z,6.66
2023-03-17T19:31:48.477Z,6.56
2023-03-17T19:35:14.319Z,6.50
2023-03-17T19:38:24.526Z,6.47
2023-03-17T19:41:53.144Z,6.55
2023-03-17T19:45:21.299Z,6.67
2023-03-17T19:48:49.280Z,6.77
2023-03-17T19:52:17.196Z,6.81
2023-03-17T19:55:45.329Z,6.89
2023-03-17T19:59:13.252Z,6.90
2023-03-17T20:02:41.281Z,6.89
2023-03-17T20:06:10.419Z,6.88
2023-03-17T20:09:38.314Z,6.85
2023-03-17T20:13:07.801Z,6.81
2023-03-17T20:16:36.781Z,6.76
2023-03-17T20:20:04.682Z,6.69
2023-03-17T20:23:12.988Z,6.65
2023-03-17T20:26:40.896Z,6.62
2023-03-17T20:30:08.876Z,6.59
2023-03-17T20:33:37.263Z,6.56
2023-03-17T20:37:05.347Z,6.52
2023-03-17T20:40:33.802Z,6.49
2023-03-17T20:44:02.292Z,6.48
2023-03-17T20:47:30.714Z,6.47
2023-03-17T20:50:58.978Z,6.45
2023-03-17T20:54:26.900Z,6.47
2023-03-17T20:57:54.864Z,6.46
2023-03-17T21:01:23.144Z,6.45
2023-03-17T21:04:51.164Z,6.43
2023-03-17T21:08:19.329Z,6.36
2023-03-17T21:11:47.318Z,6.30
2023-03-17T21:15:15.400Z,6.26
2023-03-17T21:18:43.642Z,6.23
2023-03-17T21:22:11.660Z,6.14
2023-03-17T21:25:39.671Z,6.06
2023-03-17T21:28:49.395Z,6.01
2023-03-17T21:32:17.786Z,5.98
2023-03-17T21:35:45.829Z,5.92
2023-03-17T21:39:14.516Z,5.87
2023-03-17T21:42:42.599Z,5.81
2023-03-17T21:46:10.590Z,5.75
2023-03-17T21:49:38.576Z,5.71
2023-03-17T21:53:06.479Z,5.64
2023-03-17T21:56:34.741Z,5.61
2023-03-17T22:00:02.894Z,5.62
2023-03-17T22:03:30.941Z,5.61
2023-03-17T22:06:59.138Z,5.57
2023-03-17T22:10:27.302Z,5.53
2023-03-17T22:13:55.289Z,5.48
2023-03-17T22:17:04.250Z,5.46
2023-03-17T22:20:13.160Z,5.43
2023-03-17T22:23:41.209Z,5.41
2023-03-17T22:27:09.370Z,5.39
2023-03-17T22:30:37.349Z,5.37
2023-03-17T22:34:05.783Z,5.34
2023-03-17T22:37:33.614Z,5.27
2023-03-17T22:41:01.559Z,5.26
2023-03-17T22:44:29.666Z,5.25
2023-03-17T22:47:57.610Z,5.26
2023-03-17T22:51:25.704Z,5.23
2023-03-17T22:54:53.664Z,5.18
2023-03-17T22:57:42.897Z,5.12
2023-03-17T23:01:11.048Z,5.05
2023-03-17T23:04:38.895Z,4.93
2023-03-17T23:08:06.866Z,4.77
2023-03-17T23:11:23.262Z,4.67
2023-03-17T23:14:39.470Z,4.58
2023-03-17T23:17:36.973Z,4.49
2023-03-17T23:21:05.050Z,4.34
2023-03-17T23:24:13.347Z,4.29
2023-03-17T23:27:41.399Z,4.25
2023-03-17T23:30:50.606Z,4.20
2023-03-17T23:33:59.190Z,4.19
2023-03-17T23:37:27.125Z,4.12
2023-03-17T23:40:55.032Z,4.04
2023-03-17T23:44:22.996Z,3.93
2023-03-17T23:47:51.103Z,3.79
2023-03-17T23:51:19.082Z,3.70
2023-03-17T23:54:46.960Z,3.62
2023-03-17T23:58:15.903Z,3.55
